createdAt,value
2022-08-25T00:01:55.044Z,99535.44
2022-08-25T00:04:24.161Z,99534.19
2022-08-25T00:06:51.967Z,99530.22
2022-08-25T00:09:22.837Z,99539.03
2022-08-25T00:11:53.963Z,99546.03
2022-08-25T00:14:24.249Z,99551.28
2022-08-25T00:16:52.111Z,99543.19
2022-08-25T00:19:29.277Z,99541.13
2022-08-25T00:21:57.067Z,99544.81
2022-08-25T00:24:25.280Z,99549.88
2022-08-25T00:26:55.026Z,99548.44
2022-08-25T00:29:23.967Z,99542.94
2022-08-25T00:31:51.498Z,99542.56
2022-08-25T00:34:22.284Z,99546.06
2022-08-25T00:36:49.909Z,99537.84
2022-08-25T00:39:18.050Z,99542.47
2022-08-25T00:41:45.515Z,99538.66
2022-08-25T00:44:13.936Z,99539.47
2022-08-25T00:46:51.316Z,99544.09
2022-08-25T00:49:42.548Z,99543.63
2022-08-25T00:52:16.812Z,99543.72
2022-08-25T00:55:09.457Z,99537.16
2022-08-25T00:57:42.069Z,99536.69
2022-08-25T01:00:20.865Z,99536.63
2022-08-25T01:02:48.526Z,99539.94
2022-08-25T01:05:17.720Z,99532.78
2022-08-25T01:07:45.698Z,99536.63
2022-08-25T01:10:13.722Z,99540.56
2022-08-25T01:12:41.391Z,99535.94
2022-08-25T01:15:11.119Z,99535.53
2022-08-25T01:17:52.788Z,99532.34
2022-08-25T01:20:24.610Z,99533.91
2022-08-25T01:22:57.476Z,99533.44
2022-08-25T01:25:28.366Z,99532.78
2022-08-25T01:27:55.898Z,99535.16
2022-08-25T01:30:24.108Z,99535.84
2022-08-25T01:32:52.104Z,99533.50
2022-08-25T01:35:19.876Z,99532.16
2022-08-25T01:37:47.337Z,99531.38
2022-08-25T01:40:15.125Z,99530.16
2022-08-25T01:43:08.075Z,99530.56
2022-08-25T01:45:36.444Z,99533.25
2022-08-25T01:48:04.882Z,99529.84
2022-08-25T01:50:32.915Z,99531.81
2022-08-25T01:53:07.794Z,99542.19
2022-08-25T01:55:36.874Z,99540.09
2022-08-25T01:58:04.671Z,99535.00
2022-08-25T02:00:32.762Z,99533.84
2022-08-25T02:03:00.846Z,99522.88
2022-08-25T02:05:28.274Z,99525.84
2022-08-25T02:07:56.358Z,99521.63
2022-08-25T02:10:26.974Z,99530.25
2022-08-25T02:12:57.449Z,99518.25
2022-08-25T02:15:24.917Z,99520.72
2022-08-25T02:17:52.524Z,99519.66
2022-08-25T02:20:20.065Z,99511.63
2022-08-25T02:22:56.657Z,99510.25
2022-08-25T02:25:25.471Z,99513.78
2022-08-25T02:27:52.828Z,99510.16
2022-08-25T02:30:20.407Z,99512.66
2022-08-25T02:32:48.295Z,99510.31
2022-08-25T02:35:16.848Z,99512.16
2022-08-25T02:37:44.506Z,99507.69
2022-08-25T02:40:12.615Z,99502.09
2022-08-25T02:42:42.727Z,99504.84
2022-08-25T02:45:10.450Z,99498.84
2022-08-25T02:47:38.050Z,99496.16
2022-08-25T02:50:06.299Z,99497.63
2022-08-25T02:52:33.757Z,99503.38
2022-08-25T02:55:03.884Z,99499.59
2022-08-25T02:57:31.774Z,99502.00
2022-08-25T02:59:59.376Z,99501.19
2022-08-25T03:02:27.880Z,99499.34
2022-08-25T03:04:55.359Z,99507.72
2022-08-25T03:07:22.701Z,99503.59
2022-08-25T03:09:52.500Z,99493.94
2022-08-25T03:12:19.825Z,99492.31
2022-08-25T03:14:47.154Z,99496.66
2022-08-25T03:17:15.326Z,99491.09
2022-08-25T03:19:42.626Z,99495.91
2022-08-25T03:22:10.133Z,99500.06
2022-08-25T03:24:37.812Z,99502.38
2022-08-25T03:27:05.477Z,99499.44
2022-08-25T03:29:33.737Z,99490.69
2022-08-25T03:32:01.816Z,99497.66
2022-08-25T03:34:30.459Z,99498.75
2022-08-25T03:36:59.532Z,99500.91
2022-08-25T03:39:27.189Z,99500.31
2022-08-25T03:41:54.632Z,99499.19
2022-08-25T03:44:22.731Z,99495.81
2022-08-25T03:46:51.677Z,99499.56
2022-08-25T03:49:23.183Z,99502.03
2022-08-25T03:51:52.889Z,99504.66
2022-08-25T03:54:23.350Z,99504.22
2022-08-25T03:56:51.453Z,99504.16
2022-08-25T03:59:19.088Z,99502.34
2022-08-25T04:01:50.223Z,99500.03
2022-08-25T04:04:20.711Z,99500.84
2022-08-25T04:06:48.002Z,99504.16
2022-08-25T04:09:15.379Z,99506.22
2022-08-25T04:11:43.171Z,99508.81
2022-08-25T04:14:13.001Z,99507.75
2022-08-25T04:16:45.048Z,99516.34
2022-08-25T04:19:13.505Z,99509.31
2022-08-25T04:21:41.199Z,99514.78
2022-08-25T04:24:10.717Z,99514.84
2022-08-25T04:26:41.193Z,99517.97
2022-08-25T04:29:09.501Z,99517.28
2022-08-25T04:31:39.514Z,99519.31
2022-08-25T04:34:13.429Z,99510.72
2022-08-25T04:36:55.181Z,99513.22
2022-08-25T04:39:24.906Z,99517.50
2022-08-25T04:41:52.392Z,99517.25
2022-08-25T04:44:20.130Z,99518.91
2022-08-25T04:46:47.598Z,99521.41
2022-08-25T04:49:15.347Z,99518.41
2022-08-25T04:51:43.126Z,99519.97
2022-08-25T04:54:15.373Z,99520.06
2022-08-25T04:56:43.490Z,99517.19
2022-08-25T04:59:13.984Z,99519.31
2022-08-25T05:01:41.796Z,99526.66
2022-08-25T05:04:14.699Z,99523.34
2022-08-25T05:06:56.241Z,99531.22
2022-08-25T05:09:27.579Z,99524.16
2022-08-25T05:11:55.440Z,99524.22
2022-08-25T05:14:26.170Z,99514.63
2022-08-25T05:16:57.317Z,99510.44
2022-08-25T05:19:24.887Z,99511.50
2022-08-25T05:21:52.492Z,99507.69
2022-08-25T05:24:20.715Z,99509.75
2022-08-25T05:26:48.104Z,99506.37
2022-08-25T05:29:15.434Z,99508.00
2022-08-25T05:31:50.413Z,99515.16
2022-08-25T05:34:19.068Z,99513.16
2022-08-25T05:36:47.661Z,99517.53
2022-08-25T05:39:15.118Z,99509.75
2022-08-25T05:41:42.447Z,99515.66
2022-08-25T05:44:10.088Z,99519.66
2022-08-25T05:46:37.617Z,99523.59
2022-08-25T05:49:05.166Z,99527.56
2022-08-25T05:51:32.966Z,99520.25
2022-08-25T05:54:00.433Z,99525.19
2022-08-25T05:56:30.219Z,99522.38
2022-08-25T05:58:57.819Z,99518.47
2022-08-25T06:01:28.021Z,99522.13
2022-08-25T06:03:55.593Z,99524.12
2022-08-25T06:06:24.512Z,99521.84
2022-08-25T06:08:52.136Z,99526.28
2022-08-25T06:11:20.193Z,99525.22
2022-08-25T06:13:47.553Z,99521.37
2022-08-25T06:16:15.191Z,99528.84
2022-08-25T06:18:45.186Z,99528.81
2022-08-25T06:21:18.466Z,99530.88
2022-08-25T06:23:46.318Z,99523.09
2022-08-25T06:26:20.762Z,99536.09
2022-08-25T06:32:17.011Z,99538.88
2022-08-25T06:35:06.452Z,99531.50
2022-08-25T06:37:54.012Z,99542.88
2022-08-25T06:40:41.887Z,99535.44
2022-08-25T06:43:29.431Z,99540.94
2022-08-25T06:46:20.535Z,99549.97
2022-08-25T06:49:08.345Z,99540.59
2022-08-25T06:51:56.556Z,99544.16
2022-08-25T06:54:47.278Z,99536.72
2022-08-25T06:57:37.112Z,99524.97
2022-08-25T07:00:30.293Z,99540.66
2022-08-25T07:03:25.033Z,99537.13
2022-08-25T07:06:17.225Z,99536.72
2022-08-25T07:09:08.326Z,99535.94
2022-08-25T07:11:55.871Z,99534.78
2022-08-25T07:14:58.071Z,99533.56
2022-08-25T07:17:52.296Z,99537.88
2022-08-25T07:20:40.621Z,99542.19
2022-08-25T07:23:28.532Z,99537.81
2022-08-25T07:26:37.616Z,99542.50
2022-08-25T07:29:32.204Z,99542.50
2022-08-25T07:32:20.833Z,99540.88
2022-08-25T07:35:09.417Z,99541.19
2022-08-25T07:37:59.291Z,99542.75
2022-08-25T07:40:47.140Z,99539.44
2022-08-25T07:43:41.352Z,99530.44
2022-08-25T07:46:29.116Z,99535.78
2022-08-25T07:49:17.882Z,99541.72
2022-08-25T07:52:10.908Z,99538.13
2022-08-25T07:54:58.776Z,99536.09
2022-08-25T07:57:46.370Z,99542.59
2022-08-25T08:00:40.736Z,99536.56
2022-08-25T08:03:45.233Z,99540.94
2022-08-25T08:06:39.303Z,99543.19
2022-08-25T08:09:27.150Z,99540.91
2022-08-25T08:12:15.208Z,99538.28
2022-08-25T08:15:03.937Z,99539.47
2022-08-25T08:17:59.498Z,99534.66
2022-08-25T08:20:48.322Z,99531.50
2022-08-25T08:23:35.851Z,99533.16
2022-08-25T08:26:36.257Z,99526.94
2022-08-25T08:29:29.602Z,99534.25
2022-08-25T08:32:19.580Z,99531.41
2022-08-25T08:35:07.547Z,99543.94
2022-08-25T08:37:55.806Z,99538.06
2022-08-25T08:41:06.245Z,99537.31
2022-08-25T08:44:07.236Z,99533.22
2022-08-25T08:47:32.036Z,99525.09
2022-08-25T08:50:35.042Z,99530.66
2022-08-25T08:53:27.650Z,99526.03
2022-08-25T08:56:45.173Z,99530.88
2022-08-25T08:59:48.680Z,99528.94
2022-08-25T09:02:51.391Z,99534.38
2022-08-25T09:05:51.238Z,99532.94
2022-08-25T09:08:44.485Z,99525.12
2022-08-25T09:12:09.682Z,99525.44
2022-08-25T09:15:24.485Z,99519.78
2022-08-25T09:18:26.985Z,99524.00
2022-08-25T09:21:41.416Z,99514.06
2022-08-25T09:24:34.092Z,99507.72
2022-08-25T09:27:44.993Z,99506.44
2022-08-25T09:30:45.775Z,99504.84
2022-08-25T09:33:35.579Z,99502.12
2022-08-25T09:36:24.351Z,99492.59
2022-08-25T09:39:12.937Z,99485.03
2022-08-25T09:42:01.055Z,99486.31
2022-08-25T09:44:49.205Z,99481.09
2022-08-25T09:47:44.467Z,99471.09
2022-08-25T09:50:35.011Z,99470.16
2022-08-25T09:53:22.894Z,99465.50
2022-08-25T09:56:11.556Z,99463.00
2022-08-25T09:59:21.219Z,99457.44
2022-08-25T10:02:29.458Z,99455.69
2022-08-25T10:05:26.472Z,99465.03
2022-08-25T10:08:28.681Z,99453.38
2022-08-25T10:11:38.180Z,99451.34
2022-08-25T10:14:25.940Z,99451.50
2022-08-25T10:17:15.948Z,99454.13
2022-08-25T10:20:09.681Z,99437.34
2022-08-25T10:23:12.002Z,99440.44
2022-08-25T10:26:08.963Z,99441.91
2022-08-25T10:29:35.191Z,99431.50
2022-08-25T10:32:31.370Z,99430.47
2022-08-25T10:35:27.870Z,99416.41
2022-08-25T10:38:28.734Z,99418.66
2022-08-25T10:41:23.867Z,99412.31
2022-08-25T10:44:39.813Z,99408.78
2022-08-25T10:47:39.526Z,99412.31
2022-08-25T10:51:00.533Z,99407.44
2022-08-25T10:54:15.063Z,99410.44
2022-08-25T10:57:12.170Z,99404.59
2022-08-25T11:00:11.692Z,99409.66
2022-08-25T11:03:14.957Z,99401.31
2022-08-25T11:06:10.835Z,99397.53
2022-08-25T11:09:01.210Z,99395.41
2022-08-25T11:11:54.023Z,99387.66
2022-08-25T11:14:57.198Z,99387.03
2022-08-25T11:17:57.204Z,99382.09
2022-08-25T11:21:20.112Z,99373.72
2022-08-25T11:24:33.070Z,99380.38
2022-08-25T11:27:37.422Z,99375.59
2022-08-25T11:30:26.564Z,99361.56
2022-08-25T11:33:15.122Z,99362.56
2022-08-25T11:36:06.852Z,99354.00
2022-08-25T12:04:44.406Z,99312.38
2022-08-25T12:07:24.546Z,99309.16
2022-08-25T12:09:52.215Z,99315.34
2022-08-25T12:12:31.575Z,99313.16
2022-08-25T12:15:17.302Z,99315.03
2022-08-25T12:17:45.580Z,99305.56
2022-08-25T12:20:14.932Z,99313.66
2022-08-25T12:22:43.662Z,99311.59
2022-08-25T12:25:31.123Z,99314.97
2022-08-25T12:28:09.190Z,99318.13
2022-08-25T12:30:50.796Z,99312.19
2022-08-25T12:33:40.267Z,99305.41
2022-08-25T12:36:11.308Z,99309.47
2022-08-25T12:38:51.811Z,99305.09
2022-08-25T12:41:22.380Z,99301.25
2022-08-25T12:43:54.591Z,99293.34
2022-08-25T12:46:23.415Z,99297.00
2022-08-25T12:49:29.249Z,99293.88
2022-08-25T12:52:02.617Z,99289.94
2022-08-25T12:54:52.391Z,99288.22
2022-08-25T12:57:25.118Z,99288.22
2022-08-25T12:59:59.977Z,99283.72
2022-08-25T13:02:52.105Z,99286.50
2022-08-25T13:05:25.921Z,99280.66
2022-08-25T13:08:15.367Z,99282.56
2022-08-25T13:10:58.572Z,99278.09
2022-08-25T13:13:37.967Z,99280.16
2022-08-25T13:16:09.653Z,99276.44
2022-08-25T13:18:38.424Z,99275.56
2022-08-25T13:21:28.050Z,99275.72
2022-08-25T13:24:04.611Z,99275.47
2022-08-25T13:26:37.948Z,99268.97
2022-08-25T13:29:27.235Z,99272.09
2022-08-25T13:32:09.181Z,99269.37
2022-08-25T13:34:42.547Z,99273.97
2022-08-25T13:37:19.872Z,99270.44
2022-08-25T13:39:58.694Z,99263.44
2022-08-25T13:42:28.641Z,99259.28
2022-08-25T13:44:56.516Z,99257.88
2022-08-25T13:47:43.655Z,99256.78
2022-08-25T13:50:27.232Z,99254.47
2022-08-25T13:53:16.334Z,99252.47
2022-08-25T13:55:57.319Z,99256.44
2022-08-25T13:58:45.192Z,99247.56
2022-08-25T14:01:23.672Z,99250.31
2022-08-25T14:04:39.943Z,99244.97
2022-08-25T14:07:20.405Z,99241.31
2022-08-25T14:09:59.892Z,99238.19
2022-08-25T14:12:34.072Z,99234.78
2022-08-25T14:15:27.776Z,99237.78
2022-08-25T14:18:15.359Z,99235.16
2022-08-25T14:20:46.433Z,99223.66
2022-08-25T14:23:18.884Z,99224.16
2022-08-25T14:25:48.952Z,99224.91
2022-08-25T14:28:20.372Z,99229.41
2022-08-25T14:30:51.834Z,99222.00
2022-08-25T14:33:22.261Z,99219.59
2022-08-25T14:35:52.773Z,99223.13
2022-08-25T14:38:21.810Z,99218.88
2022-08-25T14:40:49.670Z,99214.31
2022-08-25T14:43:20.904Z,99211.50
2022-08-25T14:45:52.013Z,99210.94
2022-08-25T14:48:44.492Z,99215.16
2022-08-25T14:51:33.162Z,99213.16
2022-08-25T14:54:24.421Z,99207.56
2022-08-25T14:57:13.382Z,99205.88
2022-08-25T15:00:01.721Z,99209.37
2022-08-25T15:02:50.611Z,99206.28
2022-08-25T15:05:25.476Z,99203.50
2022-08-25T15:07:54.411Z,99207.41
2022-08-25T15:10:22.671Z,99203.19
2022-08-25T15:12:53.906Z,99207.44
2022-08-25T15:15:22.481Z,99204.06
2022-08-25T15:17:50.506Z,99202.34
2022-08-25T15:20:18.611Z,99199.63
2022-08-25T15:22:46.889Z,99194.66
2022-08-25T15:25:16.642Z,99194.78
2022-08-25T15:27:45.059Z,99203.28
2022-08-25T15:30:14.544Z,99194.69
2022-08-25T15:32:43.121Z,99189.59
2022-08-25T15:35:15.299Z,99190.81
2022-08-25T15:37:43.359Z,99193.03
2022-08-25T15:40:12.096Z,99187.25
2022-08-25T15:42:42.770Z,99188.31
2022-08-25T15:45:16.196Z,99182.91
2022-08-25T15:47:45.889Z,99183.25
2022-08-25T15:50:16.496Z,99176.41
2022-08-25T15:52:45.994Z,99177.41
2022-08-25T15:55:17.256Z,99169.56
2022-08-25T15:57:44.967Z,99181.06
2022-08-25T16:00:13.561Z,99179.03
2022-08-25T16:02:44.533Z,99172.88
2022-08-25T16:05:16.367Z,99172.53
2022-08-25T16:07:44.721Z,99169.22
2022-08-25T16:10:13.484Z,99167.38
2022-08-25T16:12:42.766Z,99170.63
2022-08-25T16:15:12.256Z,99174.66
2022-08-25T16:17:40.772Z,99168.13
2022-08-25T16:20:16.107Z,99163.41
2022-08-25T16:22:43.385Z,99167.47
2022-08-25T16:25:11.973Z,99170.00
2022-08-25T16:27:39.545Z,99165.78
2022-08-25T16:30:08.795Z,99168.50
2022-08-25T16:32:36.617Z,99168.13
2022-08-25T16:35:05.820Z,99161.97
2022-08-25T16:37:38.855Z,99166.59
2022-08-25T16:40:09.368Z,99158.03
2022-08-25T16:42:38.192Z,99159.81
2022-08-25T16:45:06.567Z,99161.69
2022-08-25T16:47:37.671Z,99165.66
2022-08-25T16:50:07.871Z,99162.00
2022-08-25T16:52:39.142Z,99163.78
2022-08-25T16:55:08.780Z,99167.31
2022-08-25T16:57:36.139Z,99170.78
2022-08-25T17:00:06.063Z,99169.19
2022-08-25T17:02:34.133Z,99160.13
2022-08-25T17:05:02.106Z,99164.91
2022-08-25T17:07:29.488Z,99171.44
2022-08-25T17:09:59.561Z,99172.34
2022-08-25T17:12:27.533Z,99177.75
2022-08-25T17:14:54.892Z,99173.97
2022-08-25T17:17:26.971Z,99179.41
2022-08-25T17:19:54.835Z,99180.28
2022-08-25T17:22:22.896Z,99181.38
2022-08-25T17:24:53.433Z,99182.38
2022-08-25T17:27:30.615Z,99184.59
2022-08-25T17:29:58.376Z,99185.78
2022-08-25T17:32:28.726Z,99185.28
2022-08-25T17:34:58.353Z,99186.22
2022-08-25T17:37:25.906Z,99184.66
2022-08-25T17:40:02.570Z,99185.16
2022-08-25T17:42:31.318Z,99187.94
2022-08-25T17:44:58.668Z,99191.38
2022-08-25T17:47:27.531Z,99184.13
2022-08-25T17:49:55.149Z,99191.78
2022-08-25T17:52:25.628Z,99185.59
2022-08-25T17:54:53.006Z,99188.44
2022-08-25T17:57:21.744Z,99188.09
2022-08-25T17:59:49.075Z,99192.56
2022-08-25T18:02:16.440Z,99190.22
2022-08-25T18:04:44.778Z,99192.09
2022-08-25T18:07:12.261Z,99192.37
2022-08-25T18:09:39.665Z,99190.03
2022-08-25T18:12:07.491Z,99196.75
2022-08-25T18:14:37.719Z,99202.88
2022-08-25T18:17:05.652Z,99204.94
2022-08-25T18:19:33.959Z,99204.94
2022-08-25T18:22:01.507Z,99199.56
2022-08-25T18:24:29.039Z,99197.41
2022-08-25T18:26:56.635Z,99194.66
2022-08-25T18:29:42.943Z,99206.75
2022-08-25T18:32:30.801Z,99202.78
2022-08-25T18:35:21.348Z,99205.28
2022-08-25T18:38:09.629Z,99197.50
2022-08-25T18:40:37.305Z,99197.88
2022-08-25T18:43:06.995Z,99204.03
2022-08-25T18:45:43.554Z,99203.25
2022-08-25T18:48:11.570Z,99201.34
2022-08-25T18:50:40.939Z,99201.97
2022-08-25T18:53:09.998Z,99201.97
2022-08-25T18:55:39.809Z,99203.84
2022-08-25T18:58:07.564Z,99202.16
2022-08-25T19:00:40.791Z,99197.41
2022-08-25T19:03:09.805Z,99203.50
2022-08-25T19:05:39.150Z,99200.59
2022-08-25T19:08:11.298Z,99196.94
2022-08-25T19:10:39.343Z,99199.72
2022-08-25T19:13:08.128Z,99200.50
2022-08-25T19:15:37.534Z,99202.63
2022-08-25T19:18:09.890Z,99199.59
2022-08-25T19:20:38.931Z,99198.81
2022-08-25T19:23:07.694Z,99199.59
2022-08-25T19:25:35.833Z,99198.91
2022-08-25T19:28:12.138Z,99204.53
2022-08-25T19:30:39.925Z,99197.88
2022-08-25T19:33:42.621Z,99194.88
2022-08-25T19:36:08.750Z,99200.50
2022-08-25T19:38:37.569Z,99201.69
2022-08-25T19:41:09.056Z,99207.75
2022-08-25T19:43:56.781Z,99208.09
2022-08-25T19:46:33.320Z,99207.06
2022-08-25T19:49:17.061Z,99201.31
2022-08-25T19:51:51.156Z,99203.47
2022-08-25T19:54:26.485Z,99213.22
2022-08-25T19:56:55.861Z,99210.75
2022-08-25T19:59:36.568Z,99206.22
2022-08-25T20:02:19.718Z,99209.03
2022-08-25T20:04:50.251Z,99211.41
2022-08-25T20:07:22.430Z,99208.72
2022-08-25T20:09:53.018Z,99209.63
2022-08-25T20:12:20.708Z,99208.84
2022-08-25T20:14:49.712Z,99213.28
2022-08-25T20:17:24.780Z,99217.66
2022-08-25T20:19:55.723Z,99213.38
2022-08-25T20:22:26.657Z,99208.28
2022-08-25T20:24:59.240Z,99203.16
2022-08-25T20:27:35.028Z,99204.28
2022-08-25T20:30:09.407Z,99201.53
2022-08-25T20:32:37.321Z,99201.06
2022-08-25T20:35:08.940Z,99193.69
2022-08-25T20:37:37.336Z,99201.59
2022-08-25T20:40:05.522Z,99195.66
2022-08-25T20:42:33.038Z,99188.69
2022-08-25T20:45:01.169Z,99194.84
2022-08-25T20:47:28.705Z,99189.44
2022-08-25T20:49:58.045Z,99194.16
2022-08-25T20:52:26.085Z,99195.06
2022-08-25T20:54:53.468Z,99203.72
2022-08-25T20:57:25.659Z,99202.94
2022-08-25T20:59:55.181Z,99202.31
2022-08-25T21:02:24.068Z,99198.34
2022-08-25T21:04:53.094Z,99202.69
2022-08-25T21:07:23.887Z,99202.34
2022-08-25T21:09:51.689Z,99204.44
2022-08-25T21:12:19.419Z,99215.91
2022-08-25T21:14:47.028Z,99209.28
2022-08-25T21:17:15.471Z,99213.25
2022-08-25T21:22:19.623Z,99207.72
2022-08-25T21:24:47.805Z,99211.22
2022-08-25T21:27:17.700Z,99207.34
2022-08-25T21:29:54.606Z,99211.28
2022-08-25T21:32:25.739Z,99203.03
2022-08-25T21:34:54.426Z,99198.00
2022-08-25T21:37:22.330Z,99205.38
2022-08-25T21:39:50.689Z,99197.62
2022-08-25T21:42:19.946Z,99196.34
2022-08-25T21:44:47.503Z,99199.47
2022-08-25T21:47:15.314Z,99195.53
2022-08-25T21:49:49.574Z,99197.53
2022-08-25T21:52:17.859Z,99196.34
2022-08-25T21:54:48.723Z,99188.88
2022-08-25T21:57:16.470Z,99193.37
2022-08-25T21:59:45.146Z,99193.69
2022-08-25T22:02:13.578Z,99199.53
2022-08-25T22:04:41.606Z,99187.81
2022-08-25T22:07:10.701Z,99196.84
2022-08-25T22:09:38.373Z,99202.34
2022-08-25T22:12:06.500Z,99197.31
2022-08-25T22:14:34.838Z,99195.69
2022-08-25T22:17:06.033Z,99203.22
2022-08-25T22:19:36.783Z,99196.56
2022-08-25T22:22:04.514Z,99200.44
2022-08-25T22:24:31.905Z,99195.41
2022-08-25T22:26:59.587Z,99203.22
2022-08-25T22:29:28.176Z,99197.03
2022-08-25T22:32:00.933Z,99198.22
2022-08-25T22:34:34.003Z,99206.13
2022-08-25T22:37:02.401Z,99206.13
2022-08-25T22:39:32.171Z,99201.81
2022-08-25T22:42:02.541Z,99196.78
2022-08-25T22:44:30.278Z,99205.06
2022-08-25T22:46:57.888Z,99195.63
2022-08-25T22:49:28.622Z,99197.91
2022-08-25T22:51:56.209Z,99198.03
2022-08-25T22:54:23.976Z,99196.47
2022-08-25T22:56:53.241Z,99190.25
2022-08-25T22:59:22.470Z,99195.31
2022-08-25T23:01:50.704Z,99183.97
2022-08-25T23:04:19.131Z,99185.16
2022-08-25T23:06:47.063Z,99183.59
2022-08-25T23:09:14.855Z,99184.00
2022-08-25T23:11:43.136Z,99176.63
2022-08-25T23:14:10.456Z,99178.56
2022-08-25T23:16:39.643Z,99175.09
2022-08-25T23:19:13.930Z,99175.88
2022-08-25T23:21:42.876Z,99169.22
2022-08-25T23:24:11.335Z,99167.66
2022-08-25T23:26:41.971Z,99173.53
2022-08-25T23:29:18.148Z,99164.91
2022-08-25T23:31:47.792Z,99168.81
2022-08-25T23:34:16.554Z,99164.16
2022-08-25T23:36:44.907Z,99167.31
2022-08-25T23:39:12.176Z,99164.97
2022-08-25T23:41:41.827Z,99153.22
2022-08-25T23:44:11.631Z,99155.16
2022-08-25T23:46:39.612Z,99154.00
2022-08-25T23:49:08.388Z,99161.03
2022-08-25T23:51:38.081Z,99155.59
2022-08-25T23:54:09.237Z,99153.25
2022-08-25T23:56:42.471Z,99156.69
2022-08-25T23:59:14.427Z,99157.53
